createdAt,value
2019-05-05T00:02:24.960Z,81.49
2019-05-05T00:04:55.898Z,81.38
2019-05-05T00:07:26.719Z,81.69
2019-05-05T00:09:55.970Z,81.88
2019-05-05T00:12:45.118Z,81.92
2019-05-05T00:15:22.270Z,81.52
2019-05-05T00:17:51.440Z,81.30
2019-05-05T00:20:20.636Z,81.10
2019-05-05T00:22:49.827Z,80.87
2019-05-05T00:25:19.010Z,80.57
2019-05-05T00:27:48.202Z,80.48
2019-05-05T00:30:17.431Z,80.93
2019-05-05T00:32:46.604Z,81.04
2019-05-05T00:35:15.904Z,80.96
2019-05-05T00:37:46.040Z,81.00
2019-05-05T00:40:15.694Z,80.83
2019-05-05T00:42:46.850Z,81.04
2019-05-05T00:45:16.158Z,81.33
2019-05-05T00:47:54.447Z,81.38
2019-05-05T00:50:25.267Z,81.67
2019-05-05T00:52:55.125Z,81.96
2019-05-05T00:55:24.634Z,81.56
2019-05-05T00:57:54.852Z,81.44
2019-05-05T01:00:36.064Z,81.30
2019-05-05T01:03:05.230Z,80.95
2019-05-05T01:05:51.089Z,80.11
2019-05-05T01:08:21.966Z,79.08
2019-05-05T01:10:51.154Z,78.96
2019-05-05T01:13:20.470Z,78.59
2019-05-05T01:15:49.724Z,78.90
2019-05-05T01:18:18.991Z,78.52
2019-05-05T01:20:48.237Z,78.66
2019-05-05T01:23:17.427Z,79.52
2019-05-05T01:25:48.707Z,80.03
2019-05-05T01:28:17.602Z,80.85
2019-05-05T01:30:48.418Z,82.10
2019-05-05T01:33:25.111Z,83.12
2019-05-05T01:35:55.236Z,82.12
2019-05-05T01:38:34.128Z,82.06
2019-05-05T01:41:10.581Z,82.04
2019-05-05T01:43:39.918Z,80.98
2019-05-05T01:46:09.381Z,80.58
2019-05-05T01:48:38.554Z,80.54
2019-05-05T01:51:07.740Z,80.57
2019-05-05T01:53:36.920Z,80.53
2019-05-05T01:56:06.153Z,79.93
2019-05-05T01:58:35.798Z,79.49
2019-05-05T02:01:05.146Z,79.79
2019-05-05T02:03:34.978Z,80.12
2019-05-05T02:06:05.236Z,80.72
2019-05-05T02:08:35.042Z,80.89
2019-05-05T02:11:05.209Z,80.96
2019-05-05T02:13:34.795Z,81.29
2019-05-05T02:16:04.751Z,81.58
2019-05-05T02:18:34.619Z,81.77
2019-05-05T02:21:06.275Z,82.05
2019-05-05T02:23:36.550Z,82.23
2019-05-05T02:26:07.328Z,82.14
2019-05-05T02:28:41.000Z,82.07
2019-05-05T02:31:20.591Z,82.03
2019-05-05T02:33:49.839Z,82.10
2019-05-05T02:36:19.089Z,82.25
2019-05-05T02:38:48.264Z,82.51
2019-05-05T02:41:19.840Z,82.28
2019-05-05T02:43:49.470Z,82.81
2019-05-05T02:46:35.441Z,83.07
2019-05-05T02:49:05.566Z,83.46
2019-05-05T02:51:35.965Z,83.60
2019-05-05T02:54:06.869Z,83.74
2019-05-05T02:56:45.362Z,83.84
2019-05-05T02:59:17.639Z,83.57
2019-05-05T03:01:48.531Z,83.71
2019-05-05T03:04:18.552Z,83.50
2019-05-05T03:06:51.289Z,83.25
2019-05-05T03:09:24.312Z,83.34
2019-05-05T03:11:57.010Z,83.15
2019-05-05T03:14:28.022Z,84.00
2019-05-05T03:16:57.483Z,85.65
2019-05-05T03:19:27.097Z,85.43
2019-05-05T03:21:57.115Z,85.70
2019-05-05T03:24:26.651Z,86.06
2019-05-05T03:26:56.558Z,85.36
2019-05-05T03:29:26.207Z,84.81
2019-05-05T03:32:01.358Z,83.72
2019-05-05T03:34:31.073Z,81.87
2019-05-05T03:37:01.150Z,80.40
2019-05-05T03:39:34.040Z,78.88
2019-05-05T03:42:13.903Z,77.99
2019-05-05T03:44:56.963Z,77.67
2019-05-05T03:47:26.435Z,77.29
2019-05-05T03:49:56.602Z,77.34
2019-05-05T03:52:26.318Z,76.62
2019-05-05T03:54:56.826Z,76.00
2019-05-05T03:57:26.233Z,76.37
2019-05-05T03:59:55.681Z,75.84
2019-05-05T04:02:34.078Z,75.88
2019-05-05T04:05:08.329Z,76.09
2019-05-05T04:07:37.575Z,77.00
2019-05-05T04:10:07.522Z,77.96
2019-05-05T04:12:36.763Z,78.95
2019-05-05T04:15:06.633Z,79.92
2019-05-05T04:17:37.454Z,80.40
2019-05-05T04:20:20.478Z,80.93
2019-05-05T04:22:49.671Z,80.91
2019-05-05T04:25:19.773Z,80.73
2019-05-05T04:27:48.944Z,80.88
2019-05-05T04:30:18.126Z,80.67
2019-05-05T04:32:50.347Z,80.32
2019-05-05T04:35:19.568Z,80.45
2019-05-05T04:37:48.735Z,80.23
2019-05-05T04:40:17.904Z,80.29
2019-05-05T04:42:47.693Z,79.88
2019-05-05T04:45:17.205Z,79.33
2019-05-05T04:50:43.951Z,78.00
2019-05-05T04:53:14.344Z,78.07
2019-05-05T04:55:44.256Z,77.82
2019-05-05T04:58:13.743Z,77.68
2019-05-05T05:00:44.136Z,77.91
2019-05-05T05:03:24.039Z,78.74
2019-05-05T05:05:57.402Z,79.18
2019-05-05T05:08:26.653Z,79.58
2019-05-05T05:10:55.845Z,79.39
2019-05-05T05:13:25.147Z,79.56
2019-05-05T05:15:54.349Z,80.17
2019-05-05T05:18:24.197Z,80.70
2019-05-05T05:20:54.863Z,79.96
2019-05-05T05:23:24.778Z,80.16
2019-05-05T05:25:54.541Z,80.60
2019-05-05T05:28:23.824Z,80.10
2019-05-05T05:30:54.529Z,79.20
2019-05-05T05:33:23.975Z,79.33
2019-05-05T05:35:54.619Z,79.51
2019-05-05T05:38:24.825Z,78.63
2019-05-05T05:41:04.414Z,77.22
2019-05-05T05:43:44.207Z,77.35
2019-05-05T05:46:30.192Z,77.47
2019-05-05T05:49:04.518Z,77.89
2019-05-05T05:51:34.266Z,78.74
2019-05-05T05:54:03.815Z,79.22
2019-05-05T05:56:34.400Z,75.68
2019-05-05T05:59:03.778Z,75.93
2019-05-05T06:01:34.574Z,76.36
2019-05-05T06:04:04.674Z,74.66
2019-05-05T06:06:34.707Z,74.76
2019-05-05T06:09:04.446Z,75.02
2019-05-05T06:11:34.471Z,76.65
2019-05-05T06:14:04.123Z,78.10
2019-05-05T06:16:34.141Z,79.03
2019-05-05T06:19:03.777Z,79.97
2019-05-05T06:21:33.865Z,80.88
2019-05-05T06:24:04.526Z,79.81
2019-05-05T06:26:34.450Z,79.68
2019-05-05T06:29:04.398Z,80.12
2019-05-05T06:31:34.174Z,79.78
2019-05-05T06:34:03.846Z,79.60
2019-05-05T06:36:34.097Z,79.36
2019-05-05T06:39:05.243Z,80.14
2019-05-05T06:41:46.296Z,79.20
2019-05-05T06:44:19.822Z,77.69
2019-05-05T06:47:04.688Z,75.07
2019-05-05T06:49:34.501Z,75.70
2019-05-05T06:52:04.346Z,74.03
2019-05-05T06:54:34.886Z,73.61
2019-05-05T06:57:04.640Z,71.46
2019-05-05T06:59:34.911Z,68.89
2019-05-05T07:02:04.537Z,68.43
2019-05-05T07:04:34.092Z,68.45
2019-05-05T07:07:05.112Z,67.25
2019-05-05T07:09:34.284Z,67.78
2019-05-05T07:12:04.593Z,66.12
2019-05-05T07:14:34.156Z,66.09
2019-05-05T07:17:05.128Z,66.57
2019-05-05T07:19:34.621Z,66.94
2019-05-05T07:22:04.208Z,67.17
2019-05-05T07:24:34.522Z,67.47
2019-05-05T07:27:05.612Z,68.28
2019-05-05T07:29:34.789Z,68.82
2019-05-05T07:32:04.283Z,69.10
2019-05-05T07:34:46.943Z,69.56
2019-05-05T07:37:16.128Z,70.06
2019-05-05T07:39:45.299Z,69.91
2019-05-05T07:42:14.477Z,69.45
2019-05-05T07:44:44.164Z,67.89
2019-05-05T07:47:14.580Z,64.91
2019-05-05T07:49:44.206Z,65.30
2019-05-05T07:52:15.142Z,65.72
2019-05-05T07:54:44.537Z,66.02
2019-05-05T07:57:14.622Z,65.35
2019-05-05T07:59:44.887Z,64.71
2019-05-05T08:02:14.652Z,65.55
2019-05-05T08:04:44.001Z,66.35
2019-05-05T08:07:14.698Z,66.64
2019-05-05T08:09:44.532Z,66.47
2019-05-05T08:12:13.921Z,65.83
2019-05-05T08:14:44.403Z,65.95
2019-05-05T08:17:34.125Z,63.82
2019-05-05T08:20:06.234Z,62.48
2019-05-05T08:22:35.407Z,55.76
2019-05-05T08:25:07.464Z,56.89
2019-05-05T08:27:38.431Z,58.38
2019-05-05T08:30:26.023Z,58.69
2019-05-05T08:32:55.419Z,63.11
2019-05-05T08:35:24.632Z,72.36
2019-05-05T08:37:54.333Z,74.14
2019-05-05T08:40:24.065Z,76.35
2019-05-05T08:42:53.917Z,77.56
2019-05-05T08:45:26.435Z,78.65
2019-05-05T08:47:54.387Z,74.37
2019-05-05T08:50:26.472Z,69.14
2019-05-05T08:52:54.525Z,69.24
2019-05-05T08:55:24.875Z,70.69
2019-05-05T08:57:54.631Z,71.29
2019-05-05T09:00:24.518Z,70.53
2019-05-05T09:02:54.423Z,69.37
2019-05-05T09:05:23.943Z,69.88
2019-05-05T09:07:54.778Z,69.83
2019-05-05T09:10:24.094Z,69.07
2019-05-05T09:12:54.246Z,68.60
2019-05-05T09:15:24.312Z,69.34
2019-05-05T09:17:54.508Z,69.51
2019-05-05T09:20:24.338Z,69.36
2019-05-05T09:22:54.591Z,68.21
2019-05-05T09:25:44.543Z,67.95
2019-05-05T09:28:15.894Z,66.20
2019-05-05T09:30:47.638Z,65.45
2019-05-05T09:33:18.407Z,64.88
2019-05-05T09:35:48.552Z,62.04
2019-05-05T09:38:18.352Z,60.28
2019-05-05T09:40:47.537Z,59.84
2019-05-05T09:43:16.720Z,59.43
2019-05-05T09:45:45.924Z,59.67
2019-05-05T09:48:15.093Z,60.63
2019-05-05T09:50:44.346Z,59.67
2019-05-05T09:53:14.576Z,58.13
2019-05-05T09:55:44.416Z,58.12
2019-05-05T09:58:13.903Z,56.82
2019-05-05T10:00:44.767Z,56.44
2019-05-05T10:03:14.483Z,58.45
2019-05-05T10:05:45.184Z,58.45
2019-05-05T10:08:14.445Z,60.28
2019-05-05T10:10:44.372Z,58.94
2019-05-05T10:13:14.927Z,59.03
2019-05-05T10:15:44.621Z,57.59
2019-05-05T10:18:14.208Z,58.04
2019-05-05T10:20:43.457Z,56.99
2019-05-05T10:23:14.294Z,57.31
2019-05-05T10:25:45.226Z,57.26
2019-05-05T10:28:14.386Z,55.84
2019-05-05T10:30:43.589Z,52.58
2019-05-05T10:33:14.256Z,51.81
2019-05-05T10:35:43.890Z,51.96
2019-05-05T10:38:14.270Z,48.37
2019-05-05T10:40:44.638Z,47.78
2019-05-05T10:43:14.817Z,47.33
2019-05-05T10:45:44.324Z,46.69
2019-05-05T10:48:14.372Z,46.36
2019-05-05T10:50:44.470Z,45.69
2019-05-05T10:53:13.879Z,45.65
2019-05-05T10:55:44.986Z,46.88
2019-05-05T10:58:13.961Z,46.03
2019-05-05T11:00:49.280Z,46.63
2019-05-05T11:03:18.603Z,46.41
2019-05-05T11:05:47.915Z,45.74
2019-05-05T11:08:18.245Z,44.18
2019-05-05T11:10:48.326Z,46.17
2019-05-05T11:13:17.510Z,45.22
2019-05-05T11:15:46.825Z,46.65
2019-05-05T11:18:15.995Z,46.65
2019-05-05T11:20:45.467Z,49.08
2019-05-05T11:23:15.353Z,49.08
2019-05-05T11:25:44.788Z,47.02
2019-05-05T11:28:14.356Z,49.22
2019-05-05T11:30:46.150Z,48.25
2019-05-05T11:33:34.477Z,47.88
2019-05-05T11:36:08.520Z,48.26
2019-05-05T11:38:41.333Z,47.53
2019-05-05T11:41:09.516Z,47.64
2019-05-05T11:43:38.696Z,48.96
2019-05-05T11:46:07.906Z,48.18
2019-05-05T11:48:37.082Z,48.05
2019-05-05T11:51:06.271Z,45.42
2019-05-05T11:53:35.449Z,47.35
2019-05-05T11:56:04.786Z,47.31
2019-05-05T11:58:34.170Z,48.05
2019-05-05T12:01:03.950Z,50.04
2019-05-05T12:03:33.936Z,51.19
2019-05-05T12:06:03.951Z,50.80
2019-05-05T12:08:34.475Z,48.77
2019-05-05T12:11:05.192Z,45.99
2019-05-05T12:13:34.390Z,47.61
2019-05-05T12:16:04.879Z,49.81
2019-05-05T12:18:34.474Z,49.97
2019-05-05T12:21:05.152Z,49.97
2019-05-05T12:23:34.628Z,49.88
2019-05-05T12:26:08.148Z,51.83
2019-05-05T12:28:38.998Z,53.26
2019-05-05T12:31:15.913Z,53.26
2019-05-05T12:33:45.116Z,51.42
2019-05-05T12:36:15.078Z,51.42
2019-05-05T12:38:44.350Z,55.94
2019-05-05T12:41:14.756Z,55.94
2019-05-05T12:43:44.357Z,56.41
2019-05-05T12:46:15.132Z,56.79
2019-05-05T12:48:45.968Z,56.01
2019-05-05T12:51:15.225Z,58.05
2019-05-05T12:53:44.405Z,59.72
2019-05-05T12:56:14.608Z,59.29
2019-05-05T12:58:44.096Z,59.29
2019-05-05T13:01:20.928Z,59.26
2019-05-05T13:03:50.160Z,58.37
2019-05-05T13:06:19.338Z,58.68
2019-05-05T13:08:48.670Z,56.08
2019-05-05T13:11:17.930Z,57.42
2019-05-05T13:13:47.242Z,55.55
2019-05-05T13:16:16.411Z,55.55
2019-05-05T13:18:45.602Z,54.46
2019-05-05T13:21:28.261Z,54.43
2019-05-05T13:23:59.088Z,56.08
2019-05-05T13:26:29.906Z,54.75
2019-05-05T13:28:59.071Z,54.99
2019-05-05T13:31:28.260Z,55.13
2019-05-05T13:33:57.442Z,56.55
2019-05-05T13:36:26.630Z,58.82
2019-05-05T13:38:56.784Z,59.27
2019-05-05T13:41:25.966Z,59.27
2019-05-05T13:43:56.919Z,59.20
2019-05-05T13:46:27.824Z,60.11
2019-05-05T13:48:58.706Z,58.14
2019-05-05T13:51:27.910Z,56.46
2019-05-05T13:53:57.088Z,55.95
2019-05-05T13:56:26.281Z,55.72
2019-05-05T13:58:56.388Z,55.00
2019-05-05T14:01:25.574Z,55.00
2019-05-05T14:03:57.594Z,55.00
2019-05-05T14:06:25.648Z,54.95
2019-05-05T14:08:54.808Z,52.50
2019-05-05T14:11:24.730Z,51.47
2019-05-05T14:13:54.070Z,52.11
2019-05-05T14:16:23.266Z,51.19
2019-05-05T14:18:53.690Z,52.02
2019-05-05T14:21:24.503Z,52.38
2019-05-05T14:24:16.266Z,52.38
2019-05-05T14:26:45.503Z,51.91
2019-05-05T14:29:16.314Z,51.90
2019-05-05T14:31:45.568Z,52.34
2019-05-05T14:34:16.386Z,51.43
2019-05-05T14:36:47.192Z,51.43
2019-05-05T14:39:18.015Z,53.03
2019-05-05T14:41:47.210Z,52.66
2019-05-05T14:44:17.439Z,52.66
2019-05-05T14:46:46.618Z,53.12
2019-05-05T14:49:15.794Z,54.12
2019-05-05T14:51:45.306Z,53.85
2019-05-05T14:54:14.927Z,51.59
2019-05-05T14:56:46.157Z,51.59
2019-05-05T14:59:15.344Z,52.18
2019-05-05T15:01:44.895Z,52.05
2019-05-05T15:04:15.959Z,52.02
2019-05-05T15:06:46.807Z,51.02
2019-05-05T15:09:26.842Z,51.45
2019-05-05T15:12:03.824Z,52.72
2019-05-05T15:14:33.059Z,52.72
2019-05-05T15:17:03.805Z,55.50
2019-05-05T15:19:34.000Z,55.50
2019-05-05T15:22:03.230Z,56.48
2019-05-05T15:24:33.587Z,57.31
2019-05-05T15:27:02.853Z,57.23
2019-05-05T15:29:34.361Z,57.57
2019-05-05T15:32:04.315Z,57.75
2019-05-05T15:34:34.365Z,59.80
2019-05-05T15:37:03.951Z,61.00
2019-05-05T15:39:33.648Z,61.11
2019-05-05T15:42:04.633Z,61.31
2019-05-05T15:44:34.458Z,60.84
2019-05-05T15:47:03.845Z,60.81
2019-05-05T15:49:33.049Z,60.95
2019-05-05T15:52:04.190Z,60.79
2019-05-05T15:54:33.979Z,59.49
2019-05-05T15:57:07.846Z,58.62
2019-05-05T15:59:34.325Z,59.01
2019-05-05T16:02:04.246Z,59.33
2019-05-05T16:04:35.082Z,59.09
2019-05-05T16:07:04.642Z,58.57
2019-05-05T16:09:33.949Z,57.66
2019-05-05T16:12:03.755Z,57.60
2019-05-05T16:14:34.786Z,57.69
2019-05-05T16:17:06.510Z,55.69
2019-05-05T16:19:37.494Z,54.93
2019-05-05T16:22:09.293Z,54.93
2019-05-05T16:24:40.118Z,54.34
2019-05-05T16:27:21.081Z,54.34
2019-05-05T16:29:40.176Z,54.33
2019-05-05T16:32:28.347Z,54.15
2019-05-05T16:34:57.521Z,53.87
2019-05-05T16:37:26.720Z,54.74
2019-05-05T16:39:55.904Z,55.71
2019-05-05T16:42:25.081Z,54.96
2019-05-05T16:44:54.296Z,55.51
2019-05-05T16:47:24.468Z,55.66
2019-05-05T16:49:53.881Z,56.62
2019-05-05T16:52:24.641Z,57.01
2019-05-05T16:55:13.384Z,57.42
2019-05-05T16:57:43.727Z,58.59
2019-05-05T17:00:13.617Z,60.82
2019-05-05T17:02:44.419Z,60.82
2019-05-05T17:05:13.933Z,61.04
2019-05-05T17:07:43.113Z,61.23
2019-05-05T17:10:13.864Z,61.34
2019-05-05T17:12:50.171Z,61.18
2019-05-05T17:15:35.908Z,60.52
2019-05-05T17:18:06.794Z,60.80
2019-05-05T17:20:55.360Z,60.80
2019-05-05T17:23:24.617Z,60.41
2019-05-05T17:25:54.779Z,60.79
2019-05-05T17:28:23.967Z,62.29
2019-05-05T17:30:54.378Z,62.40
2019-05-05T17:33:24.137Z,62.57
2019-05-05T17:35:53.921Z,63.90
2019-05-05T17:38:24.458Z,62.90
2019-05-05T17:40:55.232Z,58.65
2019-05-05T17:43:35.748Z,55.66
2019-05-05T17:46:06.574Z,54.60
2019-05-05T17:48:44.208Z,54.69
2019-05-05T17:51:15.041Z,54.98
2019-05-05T17:53:48.684Z,55.57
2019-05-05T17:56:17.869Z,55.12
2019-05-05T17:58:47.045Z,54.97
2019-05-05T18:01:16.320Z,54.97
2019-05-05T18:03:46.711Z,55.04
2019-05-05T18:06:23.662Z,55.57
2019-05-05T18:08:59.610Z,55.83
2019-05-05T18:11:30.440Z,55.79
2019-05-05T18:14:10.021Z,56.05
2019-05-05T18:16:39.219Z,55.99
2019-05-05T18:19:08.396Z,55.25
2019-05-05T18:21:37.568Z,54.43
2019-05-05T18:24:07.676Z,54.06
2019-05-05T18:26:36.849Z,53.73
2019-05-05T18:29:06.051Z,53.17
2019-05-05T18:31:35.231Z,53.04
2019-05-05T18:34:04.410Z,52.95
2019-05-05T18:36:34.603Z,52.85
2019-05-05T18:39:05.557Z,53.39
2019-05-05T18:41:39.098Z,53.71
2019-05-05T18:44:13.853Z,54.02
2019-05-05T18:46:43.599Z,54.32
2019-05-05T18:49:13.873Z,54.91
2019-05-05T18:51:43.921Z,54.82
2019-05-05T18:54:13.246Z,55.02
2019-05-05T18:56:44.037Z,55.29
2019-05-05T18:59:13.303Z,55.49
2019-05-05T19:01:46.850Z,55.26
2019-05-05T19:04:17.659Z,55.21
2019-05-05T19:06:48.485Z,55.01
2019-05-05T19:09:19.331Z,55.70
2019-05-05T19:11:48.578Z,56.69
2019-05-05T19:14:18.683Z,57.34
2019-05-05T19:16:47.863Z,58.14
2019-05-05T19:19:17.051Z,58.91
2019-05-05T19:21:50.675Z,59.53
2019-05-05T19:24:19.845Z,59.80
2019-05-05T19:26:49.019Z,59.97
2019-05-05T19:29:18.206Z,60.37
2019-05-05T19:31:47.379Z,60.40
2019-05-05T19:34:16.576Z,60.05
2019-05-05T19:36:45.768Z,60.32
2019-05-05T19:39:14.940Z,60.11
2019-05-05T19:41:46.924Z,60.27
2019-05-05T19:44:15.048Z,60.31
2019-05-05T19:46:48.887Z,59.63
2019-05-05T19:49:19.426Z,59.53
2019-05-05T19:51:49.270Z,59.94
2019-05-05T19:54:18.442Z,59.79
2019-05-05T19:56:47.696Z,59.28
2019-05-05T19:59:16.898Z,59.38
2019-05-05T20:01:46.092Z,59.02
2019-05-05T20:04:15.259Z,58.13
2019-05-05T20:06:44.563Z,58.59
2019-05-05T20:09:14.312Z,59.09
2019-05-05T20:11:44.596Z,58.94
2019-05-05T20:14:15.292Z,58.26
2019-05-05T20:17:04.021Z,57.94
2019-05-05T20:19:34.808Z,57.69
2019-05-05T20:22:04.065Z,57.77
2019-05-05T20:24:33.717Z,57.88
2019-05-05T20:27:04.514Z,57.46
2019-05-05T20:29:37.214Z,57.60
2019-05-05T20:32:24.539Z,58.04
2019-05-05T20:34:55.379Z,57.45
2019-05-05T20:37:34.877Z,57.95
2019-05-05T20:40:07.237Z,58.05
2019-05-05T20:42:36.447Z,57.85
2019-05-05T20:45:08.930Z,57.98
2019-05-05T20:47:38.124Z,58.66
2019-05-05T20:50:08.368Z,59.06
2019-05-05T20:52:37.543Z,59.27
2019-05-05T20:55:06.804Z,59.37
2019-05-05T20:57:36.011Z,59.90
2019-05-05T21:00:09.341Z,60.05
2019-05-05T21:02:38.470Z,59.71
2019-05-05T21:05:07.782Z,59.02
2019-05-05T21:07:36.956Z,58.29
2019-05-05T21:10:07.776Z,58.33
2019-05-05T21:12:41.944Z,57.80
2019-05-05T21:15:08.758Z,57.74
2019-05-05T21:17:37.966Z,57.47
2019-05-05T21:20:08.055Z,56.30
2019-05-05T21:22:50.848Z,56.89
2019-05-05T21:25:24.149Z,56.90
2019-05-05T21:27:53.306Z,56.59
2019-05-05T21:30:23.830Z,56.26
2019-05-05T21:32:54.741Z,56.39
2019-05-05T21:35:24.129Z,56.24
2019-05-05T21:37:54.288Z,56.01
2019-05-05T21:40:25.025Z,56.04
2019-05-05T21:42:54.383Z,56.16
2019-05-05T21:45:23.652Z,56.52
2019-05-05T21:47:54.821Z,56.81
2019-05-05T21:50:34.335Z,56.78
2019-05-05T21:53:05.148Z,57.09
2019-05-05T21:55:44.729Z,57.23
2019-05-05T21:58:17.524Z,56.88
2019-05-05T22:00:51.080Z,56.82
2019-05-05T22:03:39.281Z,57.64
2019-05-05T22:06:08.618Z,57.33
2019-05-05T22:08:37.769Z,57.63
2019-05-05T22:11:07.045Z,57.65
2019-05-05T22:13:36.691Z,57.49
2019-05-05T22:16:05.902Z,57.58
2019-05-05T22:18:36.061Z,58.20
2019-05-05T22:21:06.976Z,58.89
2019-05-05T22:23:36.890Z,58.68
2019-05-05T22:26:07.030Z,58.47
2019-05-05T22:28:36.221Z,58.21
2019-05-05T22:31:05.447Z,58.43
2019-05-05T22:33:34.619Z,58.80
2019-05-05T22:36:04.411Z,58.80
2019-05-05T22:38:34.738Z,58.81
2019-05-05T22:41:04.003Z,58.65
2019-05-05T22:43:34.648Z,58.99
2019-05-05T22:46:03.943Z,59.38
2019-05-05T22:48:34.505Z,59.11
2019-05-05T22:51:21.647Z,58.92
2019-05-05T22:53:50.818Z,58.74
2019-05-05T22:56:19.985Z,58.78
2019-05-05T22:58:49.157Z,59.34
2019-05-05T23:01:18.441Z,59.24
2019-05-05T23:03:51.649Z,59.28
2019-05-05T23:06:25.536Z,59.27
2019-05-05T23:08:54.747Z,58.93
2019-05-05T23:11:24.830Z,59.03
2019-05-05T23:13:55.638Z,59.05
2019-05-05T23:16:29.155Z,58.70
2019-05-05T23:18:59.919Z,59.01
2019-05-05T23:21:39.348Z,59.00
2019-05-05T23:24:18.693Z,58.82
2019-05-05T23:26:49.508Z,58.74
2019-05-05T23:29:18.725Z,59.03
2019-05-05T23:31:47.917Z,58.89
2019-05-05T23:34:17.100Z,59.28
2019-05-05T23:36:46.260Z,59.38
2019-05-05T23:39:15.449Z,59.53
2019-05-05T23:41:44.648Z,59.16
2019-05-05T23:44:14.371Z,58.65
2019-05-05T23:46:43.777Z,58.90
2019-05-05T23:49:13.779Z,59.02
2019-05-05T23:51:44.126Z,59.13
2019-05-05T23:54:13.670Z,59.47
2019-05-05T23:56:44.132Z,59.51
2019-05-05T23:59:13.700Z,59.90
